Strona główna
METAR-TAF:

METAR-TAF

Lotnisko :

Preston, Anglia

Szerokość geograficzna: 53-44-42N, Długość geograficzna: 2-53-02W, wysokość: 17 m

Aktualna obserwacja pogody

Raport powstał 6 godziny i 18 minut temu, godzina 19:20 UTC
Wiatr 8 kt od zachód
Temperatura 7°C
Wilgotność 87%
Ciśnienie 1045 hPa
Widzialność 10 km lub więcej
Rozproszone chmury na wysokości 2400 ft

METAR: EGNO 201920Z 27008KT 9999 SCT024 07/05 Q1045

czas: 01:38 (01:38 UTC)

Prognoza

Raport powstał 11 godziny i 39 minut temu, godzina 13:59 UTC
Prognoza ważna od 20 godzina 15 UTC do 20 godzina 19 UTC
Wiatr 9 kt od zachód
Widzialność 10 km lub więcej
Mało chmury na wysokości 2500 ft

TAF: EGNO 201359Z 2015/2019 26009KT 9999 FEW025

Obserwacja i prognoza pogody dla ponad 4000 lotnisk (raport METAR i TAF).

Dostępne stacje oznaczono żółtymi i czerwonymi punktami na mapie.

Najedź kursorem aby zobaczyć nazwę stacji.

Kliknij aby zobaczyć obserwacje i prognozy pogody.

Aby zmienić mapę: kliknij na zielony przycisk z czarnym krzyżykiem, aby powiększyć; na zielony przycisk z myślnikiem, aby pomniejszyć; na zielone strzałki, aby przejść do map sąsiednich.


METAR-TAF: